Time;durP1;ratioP1;P1;durP2;ratioP2;P2;SDS_P1;SDS_P2;PMS_P1;PMS_P2;Temp;Humidity;BMP_temperature;BMP_pressure;BME280_temperature;BME280_humidity;BME280_pressure;Samples;Min_cycle;Max_cycle;Signal;HPM_P1;HPM_P2
2022/04/08 00:00:31;;;;;;;;;0.00;0.00;;;;;;;;2;261079217;261079217;-81
2022/04/08 00:09:58;;;;;;;;;0.00;0.00;;;;;;;;2;288084375;288084375;-81
2022/04/08 00:18:14;;;;;;;;;0.00;0.00;;;;;;;;2;261074424;261074424;-81
2022/04/08 00:27:43;;;;;;;;;0.00;0.00;;;;;;;;2;288082956;288082956;-81
2022/04/08 00:35:58;;;;;;;;;0.00;0.00;;;;;;;;2;261075810;261075810;-81
2022/04/08 00:45:26;;;;;;;;;0.00;0.00;;;;;;;;2;288084212;288084212;-81
2022/04/08 00:53:44;;;;;;;;;0.00;0.00;;;;;;;;2;261074918;261074918;-81
2022/04/08 01:03:12;;;;;;;;;0.00;0.00;;;;;;;;2;288084289;288084289;-81
2022/04/08 01:11:27;;;;;;;;;0.00;0.00;;;;;;;;2;261076434;261076434;-81
2022/04/08 01:20:55;;;;;;;;;0.00;0.00;;;;;;;;2;288083303;288083303;-80
2022/04/08 01:29:10;;;;;;;;;0.00;0.00;;;;;;;;2;261074027;261074027;-81
2022/04/08 01:38:38;;;;;;;;;0.00;0.00;;;;;;;;2;288082978;288082978;-81
2022/04/08 01:46:53;;;;;;;;;0.00;0.00;;;;;;;;2;261075296;261075296;-81
2022/04/08 01:56:20;;;;;;;;;0.00;0.00;;;;;;;;2;288083764;288083764;-81
2022/04/08 02:04:36;;;;;;;;;0.00;0.00;;;;;;;;2;261075825;261075825;-80
2022/04/08 02:14:04;;;;;;;;;0.00;0.00;;;;;;;;2;288085504;288085504;-81
2022/04/08 02:22:20;;;;;;;;;0.00;0.00;;;;;;;;2;261077826;261077826;-80
2022/04/08 02:31:47;;;;;;;;;0.00;0.00;;;;;;;;2;288084521;288084521;-80
2022/04/08 02:40:03;;;;;;;;;0.00;0.00;;;;;;;;2;261073627;261073627;-80
2022/04/08 02:49:31;;;;;;;;;0.00;0.00;;;;;;;;2;288083378;288083378;-81
2022/04/08 02:57:47;;;;;;;;;0.00;0.00;;;;;;;;2;261074693;261074693;-81
2022/04/08 03:07:15;;;;;;;;;0.00;0.00;;;;;;;;2;288082163;288082163;-81
2022/04/08 03:15:30;;;;;;;;;0.00;0.00;;;;;;;;2;261075456;261075456;-81
2022/04/08 03:24:58;;;;;;;;;0.00;0.00;;;;;;;;2;288083300;288083300;-80
2022/04/08 03:33:14;;;;;;;;;0.00;0.00;;;;;;;;2;261076986;261076986;-81
2022/04/08 03:42:41;;;;;;;;;0.00;0.00;;;;;;;;2;288083962;288083962;-81
2022/04/08 03:50:57;;;;;;;;;0.00;0.00;;;;;;;;2;261075764;261075764;-77
2022/04/08 04:00:24;;;;;;;;;0.00;0.00;;;;;;;;2;288086074;288086074;-80
2022/04/08 04:08:39;;;;;;;;;0.00;0.00;;;;;;;;2;261077627;261077627;-81
2022/04/08 04:18:08;;;;;;;;;0.00;0.00;;;;;;;;2;288085664;288085664;-80
2022/04/08 04:26:24;;;;;;;;;0.00;0.00;;;;;;;;2;261077639;261077639;-80
2022/04/08 04:35:51;;;;;;;;;0.00;0.00;;;;;;;;2;288084102;288084102;-79
2022/04/08 04:44:07;;;;;;;;;0.00;0.00;;;;;;;;2;261077661;261077661;-79
2022/04/08 04:53:34;;;;;;;;;0.00;0.00;;;;;;;;2;288084702;288084702;-79
2022/04/08 05:01:50;;;;;;;;;0.00;0.00;;;;;;;;2;261078706;261078706;-79
2022/04/08 05:11:17;;;;;;;;;0.00;0.00;;;;;;;;2;288082348;288082348;-79
2022/04/08 05:19:33;;;;;;;;;0.00;0.00;;;;;;;;2;261079078;261079078;-79
2022/04/08 05:29:00;;;;;;;;;0.00;0.00;;;;;;;;2;288084035;288084035;-78
2022/04/08 05:37:16;;;;;;;;;0.00;0.00;;;;;;;;2;261078676;261078676;-78
2022/04/08 05:46:44;;;;;;;;;0.00;0.00;;;;;;;;2;288083565;288083565;-78
2022/04/08 05:54:59;;;;;;;;;0.00;0.00;;;;;;;;2;261077522;261077522;-78
2022/04/08 06:04:27;;;;;;;;;0.00;0.00;;;;;;;;2;288083758;288083758;-77
2022/04/08 06:12:42;;;;;;;;;0.00;0.00;;;;;;;;2;261077971;261077971;-78
2022/04/08 06:22:10;;;;;;;;;0.00;0.00;;;;;;;;2;288083845;288083845;-78
2022/04/08 06:30:25;;;;;;;;;0.00;0.00;;;;;;;;2;261077797;261077797;-78
2022/04/08 06:39:53;;;;;;;;;0.00;0.00;;;;;;;;2;288084436;288084436;-77
2022/04/08 06:48:09;;;;;;;;;0.00;0.00;;;;;;;;2;261077431;261077431;-76
2022/04/08 06:57:36;;;;;;;;;0.00;0.00;;;;;;;;2;288083707;288083707;-77
2022/04/08 07:05:52;;;;;;;;;0.00;0.00;;;;;;;;2;261078627;261078627;-80
2022/04/08 07:15:20;;;;;;;;;0.00;0.00;;;;;;;;2;288087213;288087213;-77
2022/04/08 07:23:36;;;;;;;;;0.00;0.00;;;;;;;;2;261075512;261075512;-77
2022/04/08 07:33:04;;;;;;;;;0.00;0.00;;;;;;;;2;288084477;288084477;-77
2022/04/08 07:41:20;;;;;;;;;0.00;0.00;;;;;;;;2;261077094;261077094;-78
2022/04/08 07:50:47;;;;;;;;;0.00;0.00;;;;;;;;2;288081658;288081658;-78
2022/04/08 07:59:03;;;;;;;;;0.00;0.00;;;;;;;;2;261077609;261077609;-77
2022/04/08 08:08:31;;;;;;;;;0.00;0.00;;;;;;;;2;288085025;288085025;-77
2022/04/08 08:16:46;;;;;;;;;0.00;0.00;;;;;;;;2;261076325;261076325;-77
2022/04/08 08:26:14;;;;;;;;;0.00;0.00;;;;;;;;2;288083862;288083862;-75
2022/04/08 08:34:29;;;;;;;;;0.00;0.00;;;;;;;;2;261077156;261077156;-75
2022/04/08 08:43:57;;;;;;;;;0.00;0.00;;;;;;;;2;288082325;288082325;-75
2022/04/08 08:52:13;;;;;;;;;0.00;0.00;;;;;;;;2;261078299;261078299;-78
2022/04/08 09:01:41;;;;;;;;;0.00;0.00;;;;;;;;2;288084672;288084672;-75
2022/04/08 09:09:57;;;;;;;;;0.00;0.00;;;;;;;;2;261074481;261074481;-73
2022/04/08 09:19:25;;;;;;;;;0.00;0.00;;;;;;;;2;288086979;288086979;-74
2022/04/08 09:27:41;;;;;;;;;0.00;0.00;;;;;;;;2;261078571;261078571;-73
2022/04/08 09:37:12;;;;;;;;;0.00;0.00;;;;;;;;2;288082462;288082462;-75
2022/04/08 09:45:30;;;;;;;;;0.00;0.00;;;;;;;;2;261077256;261077256;-75
2022/04/08 09:54:58;;;;;;;;;0.00;0.00;;;;;;;;2;288087294;288087294;-75
2022/04/08 10:03:14;;;;;;;;;0.00;0.00;;;;;;;;2;261076346;261076346;-75
2022/04/08 10:12:50;;;;;;;;;0.00;0.00;;;;;;;;2;288082877;288082877;-75
2022/04/08 10:21:06;;;;;;;;;0.00;0.00;;;;;;;;2;261075100;261075100;-76
2022/04/08 10:30:35;;;;;;;;;0.00;0.00;;;;;;;;2;288082826;288082826;-76
2022/04/08 10:38:51;;;;;;;;;0.00;0.00;;;;;;;;2;261077341;261077341;-79
2022/04/08 10:48:18;;;;;;;;;0.00;0.00;;;;;;;;2;288086637;288086637;-76
2022/04/08 10:56:34;;;;;;;;;0.00;0.00;;;;;;;;2;261076626;261076626;-76
2022/04/08 11:06:02;;;;;;;;;0.00;0.00;;;;;;;;2;288083268;288083268;-75
2022/04/08 11:14:18;;;;;;;;;0.00;0.00;;;;;;;;2;261075464;261075464;-75
2022/04/08 11:23:56;;;;;;;;;0.00;0.00;;;;;;;;2;288083624;288083624;-77
2022/04/08 11:32:11;;;;;;;;;0.00;0.00;;;;;;;;2;261077329;261077329;-75
2022/04/08 11:41:39;;;;;;;;;0.00;0.00;;;;;;;;2;288085207;288085207;-76
2022/04/08 11:50:07;;;;;;;;;0.00;0.00;;;;;;;;2;261078003;261078003;-75
2022/04/08 11:59:35;;;;;;;;;0.00;0.00;;;;;;;;2;288085513;288085513;-76
2022/04/08 12:07:52;;;;;;;;;0.00;0.00;;;;;;;;2;261078609;261078609;-76
2022/04/08 12:17:36;;;;;;;;;0.00;0.00;;;;;;;;2;288083762;288083762;-76
2022/04/08 12:25:55;;;;;;;;;0.00;0.00;;;;;;;;2;261075908;261075908;-76
2022/04/08 12:35:27;;;;;;;;;0.00;0.00;;;;;;;;2;288081141;288081141;-76
2022/04/08 12:44:00;;;;;;;;;;;;;;;;;;;;;
2022/04/08 12:53:29;;;;;;;;;0.00;0.00;;;;;;;;2;288113112;288113112;-78
2022/04/08 13:01:50;;;;;;;;;0.00;0.00;;;;;;;;2;261077608;261077608;-79
2022/04/08 13:11:18;;;;;;;;;0.00;0.00;;;;;;;;2;288085379;288085379;-80
2022/04/08 13:19:34;;;;;;;;;0.00;0.00;;;;;;;;2;261078083;261078083;-80
2022/04/08 13:29:01;;;;;;;;;0.00;0.00;;;;;;;;2;288080960;288080960;-78
2022/04/08 13:37:17;;;;;;;;;0.00;0.00;;;;;;;;2;261077892;261077892;-77
2022/04/08 13:46:44;;;;;;;;;0.00;0.00;;;;;;;;2;288085805;288085805;-76
2022/04/08 13:55:00;;;;;;;;;0.00;0.00;;;;;;;;2;261077139;261077139;-77
2022/04/08 14:04:28;;;;;;;;;0.00;0.00;;;;;;;;2;288083192;288083192;-78
2022/04/08 14:12:43;;;;;;;;;0.00;0.00;;;;;;;;2;261076319;261076319;-77
2022/04/08 14:22:11;;;;;;;;;0.00;0.00;;;;;;;;2;288083538;288083538;-77
2022/04/08 14:30:27;;;;;;;;;0.00;0.00;;;;;;;;2;261080088;261080088;-76
2022/04/08 14:39:54;;;;;;;;;0.00;0.00;;;;;;;;2;288089462;288089462;-78
2022/04/08 14:48:10;;;;;;;;;0.00;0.00;;;;;;;;2;261081654;261081654;-78
2022/04/08 14:57:37;;;;;;;;;0.00;0.00;;;;;;;;2;288085322;288085322;-77
2022/04/08 15:05:53;;;;;;;;;0.00;0.00;;;;;;;;2;261075956;261075956;-78
2022/04/08 15:15:21;;;;;;;;;0.00;0.00;;;;;;;;2;288086998;288086998;-78
2022/04/08 15:23:37;;;;;;;;;0.00;0.00;;;;;;;;2;261077786;261077786;-77
2022/04/08 15:33:04;;;;;;;;;0.00;0.00;;;;;;;;2;288088013;288088013;-79
2022/04/08 15:41:20;;;;;;;;;0.00;0.00;;;;;;;;2;261079886;261079886;-79
2022/04/08 15:50:48;;;;;;;;;0.00;0.00;;;;;;;;2;288083900;288083900;-79
2022/04/08 15:59:04;;;;;;;;;0.00;0.00;;;;;;;;2;261080499;261080499;-78
2022/04/08 16:08:32;;;;;;;;;0.00;0.00;;;;;;;;2;288085813;288085813;-79
2022/04/08 16:16:47;;;;;;;;;0.00;0.00;;;;;;;;2;261081239;261081239;-79
2022/04/08 16:26:15;;;;;;;;;0.00;0.00;;;;;;;;2;288085694;288085694;-77
2022/04/08 16:34:30;;;;;;;;;0.00;0.00;;;;;;;;2;261080874;261080874;-80
2022/04/08 16:43:58;;;;;;;;;0.00;0.00;;;;;;;;2;288081783;288081783;-80
2022/04/08 16:52:14;;;;;;;;;0.00;0.00;;;;;;;;2;261075750;261075750;-80
2022/04/08 17:05:01;;;;;;;;;0.00;0.00;;;;;;;;2;288086871;288086871;-81
2022/04/08 17:13:16;;;;;;;;;0.00;0.00;;;;;;;;2;261082137;261082137;-82
2022/04/08 17:22:44;;;;;;;;;0.00;0.00;;;;;;;;2;288085859;288085859;-80
2022/04/08 17:30:59;;;;;;;;;0.00;0.00;;;;;;;;2;261077858;261077858;-78
2022/04/08 17:40:30;;;;;;;;;0.00;0.00;;;;;;;;2;288085404;288085404;-79
2022/04/08 17:48:46;;;;;;;;;0.00;0.00;;;;;;;;2;261080255;261080255;-81
2022/04/08 17:58:44;;;;;;;;;;;;;;;;;;;;;
2022/04/08 18:07:00;;;;;;;;;0.00;0.00;;;;;;;;2;261107480;261107480;-79
2022/04/08 18:16:29;;;;;;;;;0.00;0.00;;;;;;;;2;288083640;288083640;-79
2022/04/08 18:24:45;;;;;;;;;0.00;0.00;;;;;;;;2;261079131;261079131;-77
2022/04/08 18:34:12;;;;;;;;;0.00;0.00;;;;;;;;2;288086597;288086597;-80
2022/04/08 18:42:28;;;;;;;;;0.00;0.00;;;;;;;;2;261081955;261081955;-77
2022/04/08 18:51:56;;;;;;;;;0.00;0.00;;;;;;;;2;288083617;288083617;-78
2022/04/08 19:00:11;;;;;;;;;0.00;0.00;;;;;;;;2;261080803;261080803;-77
2022/04/08 19:09:39;;;;;;;;;0.00;0.00;;;;;;;;2;288085176;288085176;-77
2022/04/08 19:17:54;;;;;;;;;0.00;0.00;;;;;;;;2;261076457;261076457;-76
2022/04/08 19:27:22;;;;;;;;;0.00;0.00;;;;;;;;2;288088353;288088353;-76
2022/04/08 19:35:37;;;;;;;;;0.00;0.00;;;;;;;;2;261076936;261076936;-77
2022/04/08 19:45:06;;;;;;;;;0.00;0.00;;;;;;;;2;288084479;288084479;-76
2022/04/08 19:53:21;;;;;;;;;0.00;0.00;;;;;;;;2;261077706;261077706;-77
2022/04/08 20:02:49;;;;;;;;;0.00;0.00;;;;;;;;2;288087406;288087406;-77
2022/04/08 20:11:05;;;;;;;;;0.00;0.00;;;;;;;;2;261079642;261079642;-78
2022/04/08 20:20:33;;;;;;;;;0.00;0.00;;;;;;;;2;288085758;288085758;-77
2022/04/08 20:28:49;;;;;;;;;0.00;0.00;;;;;;;;2;261077348;261077348;-77
2022/04/08 20:38:17;;;;;;;;;0.00;0.00;;;;;;;;2;288084648;288084648;-77
2022/04/08 20:46:33;;;;;;;;;0.00;0.00;;;;;;;;2;261079887;261079887;-76
2022/04/08 20:56:02;;;;;;;;;0.00;0.00;;;;;;;;2;288085401;288085401;-76
2022/04/08 21:04:21;;;;;;;;;0.00;0.00;;;;;;;;2;261078030;261078030;-75
2022/04/08 21:13:49;;;;;;;;;0.00;0.00;;;;;;;;2;288084876;288084876;-76
2022/04/08 21:22:05;;;;;;;;;0.00;0.00;;;;;;;;2;261077097;261077097;-75
2022/04/08 21:31:32;;;;;;;;;0.00;0.00;;;;;;;;2;288086419;288086419;-76
2022/04/08 21:39:48;;;;;;;;;0.00;0.00;;;;;;;;2;261078440;261078440;-76
2022/04/08 21:49:16;;;;;;;;;0.00;0.00;;;;;;;;2;288082173;288082173;-76
2022/04/08 21:57:31;;;;;;;;;0.00;0.00;;;;;;;;2;261076071;261076071;-75
2022/04/08 22:06:59;;;;;;;;;0.00;0.00;;;;;;;;2;288086192;288086192;-75
2022/04/08 22:15:14;;;;;;;;;0.00;0.00;;;;;;;;2;261076859;261076859;-75
2022/04/08 22:24:42;;;;;;;;;0.00;0.00;;;;;;;;2;288089141;288089141;-75
2022/04/08 22:32:57;;;;;;;;;0.00;0.00;;;;;;;;2;261077673;261077673;-76
2022/04/08 22:42:25;;;;;;;;;0.00;0.00;;;;;;;;2;288084296;288084296;-75
2022/04/08 22:50:40;;;;;;;;;0.00;0.00;;;;;;;;2;261076480;261076480;-75
2022/04/08 23:00:11;;;;;;;;;0.00;0.00;;;;;;;;2;288086944;288086944;-75
2022/04/08 23:08:27;;;;;;;;;0.00;0.00;;;;;;;;2;261077539;261077539;-75
2022/04/08 23:17:54;;;;;;;;;0.00;0.00;;;;;;;;2;288083327;288083327;-76
2022/04/08 23:26:10;;;;;;;;;0.00;0.00;;;;;;;;2;261078509;261078509;-76
2022/04/08 23:35:38;;;;;;;;;0.00;0.00;;;;;;;;2;288086088;288086088;-76
2022/04/08 23:43:53;;;;;;;;;0.00;0.00;;;;;;;;2;261076039;261076039;-76
2022/04/08 23:53:21;;;;;;;;;0.00;0.00;;;;;;;;2;288084834;288084834;-76
